Time;durP1;ratioP1;P1;durP2;ratioP2;P2;SDS_P1;SDS_P2;PMS_P1;PMS_P2;Temp;Humidity;BMP_temperature;BMP_pressure;BME280_temperature;BME280_humidity;BME280_pressure;Samples;Min_cycle;Max_cycle;Signal;HPM_P1;HPM_P2
2021/06/29 00:01:04;;;;;;;5.80;3.50;;;;;;;20.47;60.68;100271.75;1695004;82;21133;-59
2021/06/29 00:03:30;;;;;;;6.15;3.37;;;;;;;20.48;60.64;100268.07;1667989;84;21646;-58
2021/06/29 00:05:57;;;;;;;6.53;3.92;;;;;;;20.48;60.75;100268.07;1699613;83;21089;-58
2021/06/29 00:08:25;;;;;;;5.60;3.12;;;;;;;20.43;60.81;100262.47;1691946;83;21581;-58
2021/06/29 00:10:52;;;;;;;6.25;3.70;;;;;;;20.38;60.89;100269.72;1699945;83;21019;-58
2021/06/29 00:13:22;;;;;;;6.28;3.45;;;;;;;20.33;60.92;100272.65;1661738;83;21039;-58
2021/06/29 00:15:46;;;;;;;7.33;3.47;;;;;;;20.27;61.05;100272.06;1662821;83;21074;-58
2021/06/29 00:18:13;;;;;;;6.45;3.62;;;;;;;20.18;61.41;100262.82;1690819;83;21019;-58
2021/06/29 00:20:39;;;;;;;6.97;3.37;;;;;;;20.16;61.62;100266.20;1689040;83;21694;-59
2021/06/29 00:23:06;;;;;;;7.75;3.58;;;;;;;20.19;61.71;100264.48;1691536;83;21193;-58
2021/06/29 00:25:33;;;;;;;7.67;3.83;;;;;;;20.20;61.55;100262.63;1657245;85;21172;-58
2021/06/29 00:28:00;;;;;;;6.12;3.92;;;;;;;20.15;61.48;100267.72;1659475;84;21166;-57
2021/06/29 00:30:26;;;;;;;6.72;3.85;;;;;;;20.08;61.64;100268.98;1637243;86;21094;-58
2021/06/29 00:32:53;;;;;;;6.45;3.60;;;;;;;19.97;61.95;100279.65;1641379;86;21087;-58
2021/06/29 00:35:19;;;;;;;6.12;3.85;;;;;;;19.87;62.06;100275.11;1637928;86;21712;-58
2021/06/29 00:37:47;;;;;;;8.38;3.77;;;;;;;19.81;62.32;100276.66;1633581;86;21114;-58
2021/06/29 00:40:13;;;;;;;5.90;3.70;;;;;;;19.76;62.43;100275.06;1651864;84;21615;-58
2021/06/29 00:42:41;;;;;;;6.60;3.55;;;;;;;19.72;62.64;100273.76;1628052;86;21594;-58
2021/06/29 00:45:09;;;;;;;6.33;3.80;;;;;;;19.74;62.64;100269.05;1628837;85;21197;-58
2021/06/29 00:47:36;;;;;;;6.00;3.30;;;;;;;19.76;62.63;100264.37;1657380;84;21124;-59
2021/06/29 00:50:07;;;;;;;6.62;3.80;;;;;;;19.77;62.78;100274.55;1656559;84;21790;-60
2021/06/29 00:52:33;;;;;;;6.40;3.62;;;;;;;19.74;62.91;100270.39;1657071;84;21665;-63
2021/06/29 00:55:00;;;;;;;7.97;3.75;;;;;;;19.74;63.01;100271.72;1655571;84;21496;-64
2021/06/29 00:57:28;;;;;;;5.80;3.90;;;;;;;19.74;63.09;100271.72;1658184;84;21096;-65
2021/06/29 00:59:55;;;;;;;6.25;4.10;;;;;;;19.73;63.31;100279.40;1630670;84;21078;-64
2021/06/29 01:02:21;;;;;;;6.00;3.80;;;;;;;19.73;63.46;100271.91;1657011;84;21116;-63
2021/06/29 01:04:48;;;;;;;6.00;3.85;;;;;;;19.76;63.55;100272.39;1629903;85;21120;-63
2021/06/29 01:07:14;;;;;;;7.70;3.42;;;;;;;19.81;63.46;100275.33;1658996;84;21554;-63
2021/06/29 01:09:41;;;;;;;5.75;3.55;;;;;;;19.84;63.65;100282.97;1655990;84;21115;-63
2021/06/29 01:12:08;;;;;;;6.45;4.17;;;;;;;19.82;63.49;100283.67;1651818;85;21584;-62
2021/06/29 01:14:35;;;;;;;6.95;3.75;;;;;;;19.79;63.65;100285.38;1655109;85;21104;-63
2021/06/29 01:17:04;;;;;;;6.50;3.70;;;;;;;19.78;63.57;100288.22;1652631;85;21471;-62
2021/06/29 01:19:50;;;;;;;6.58;3.98;;;;;;;19.74;63.64;100287.73;1652939;85;21632;-64
2021/06/29 01:22:02;;;;;;;5.83;3.50;;;;;;;19.68;63.89;100285.80;1625482;86;21082;-63
2021/06/29 01:24:31;;;;;;;5.55;3.65;;;;;;;19.67;63.96;100294.84;1651924;85;21094;-63
2021/06/29 01:27:12;;;;;;;7.50;4.17;;;;;;;19.72;63.89;100295.11;1652208;85;21125;-63
2021/06/29 01:32:15;;;;;;;7.30;3.83;;;;;;;19.77;63.95;100291.41;1652947;85;21114;-63
2021/06/29 01:34:41;;;;;;;5.65;3.75;;;;;;;19.75;64.15;100286.73;1629071;85;21066;-63
2021/06/29 01:37:08;;;;;;;7.70;4.25;;;;;;;19.71;64.34;100288.11;1651576;85;21070;-64
2021/06/29 01:39:34;;;;;;;5.95;4.17;;;;;;;19.72;64.48;100287.10;1649678;85;21739;-63
2021/06/29 01:42:01;;;;;;;6.10;4.05;;;;;;;19.73;64.65;100285.25;1627808;86;21025;-64
2021/06/29 01:44:33;;;;;;;6.05;3.85;;;;;;;19.72;64.64;100279.58;1651661;85;21621;-63
2021/06/29 01:46:56;;;;;;;7.78;4.15;;;;;;;19.73;64.55;100286.07;1649216;85;21096;-66
2021/06/29 01:49:27;;;;;;;6.78;3.83;;;;;;;19.76;64.44;100287.08;1656527;85;21133;-63
2021/06/29 01:51:54;;;;;;;6.05;3.83;;;;;;;19.81;64.26;100289.20;1654956;85;21165;-63
2021/06/29 01:54:21;;;;;;;6.45;3.77;;;;;;;19.81;64.06;100293.20;1654509;85;21075;-63
2021/06/29 01:56:49;;;;;;;6.97;4.03;;;;;;;19.81;64.05;100295.35;1672614;84;21075;-63
2021/06/29 01:59:19;;;;;;;6.25;4.08;;;;;;;19.83;64.07;100289.83;1652372;85;21618;-64
2021/06/29 02:01:46;;;;;;;7.97;3.87;;;;;;;19.85;64.08;100292.65;1652853;85;21523;-64
2021/06/29 02:04:13;;;;;;;6.78;4.00;;;;;;;19.86;64.13;100292.13;1653382;85;21184;-64
2021/06/29 02:06:40;;;;;;;9.78;4.05;;;;;;;19.90;64.34;100289.39;1651325;85;21495;-63
2021/06/29 02:09:11;;;;;;;8.58;4.20;;;;;;;20.01;64.51;100283.59;1627880;86;21066;-63
2021/06/29 02:11:39;;;;;;;9.95;4.37;;;;;;;20.11;64.12;100285.16;1655824;85;21502;-63
2021/06/29 02:14:06;;;;;;;7.62;4.65;;;;;;;20.17;63.91;100284.37;1648054;85;21077;-62
2021/06/29 02:16:33;;;;;;;7.03;4.70;;;;;;;20.17;63.86;100285.23;1654628;85;21091;-62
2021/06/29 02:19:00;;;;;;;8.93;4.08;;;;;;;20.18;63.78;100287.38;1652516;85;21503;-63
2021/06/29 02:21:26;;;;;;;6.67;4.12;;;;;;;20.16;63.72;100286.23;1653169;85;21082;-63
2021/06/29 02:23:53;;;;;;;8.85;4.33;;;;;;;20.16;63.68;100286.75;1657833;85;21556;-63
2021/06/29 02:26:21;;;;;;;7.28;3.95;;;;;;;20.14;63.52;100284.27;1652451;85;21530;-63
2021/06/29 02:28:48;;;;;;;5.62;3.80;;;;;;;20.17;63.31;100291.91;1650743;85;21140;-64
2021/06/29 02:31:14;;;;;;;6.65;4.55;;;;;;;20.13;63.45;100283.93;1649148;85;21066;-63
2021/06/29 02:33:41;;;;;;;6.78;4.28;;;;;;;20.07;63.73;100285.19;1652311;85;22242;-63
2021/06/29 02:36:08;;;;;;;6.80;4.50;;;;;;;20.05;63.89;100284.04;1651582;85;21146;-59
2021/06/29 02:38:35;;;;;;;6.85;4.22;;;;;;;20.05;63.98;100281.36;1651333;86;21578;-59
2021/06/29 02:41:03;;;;;;;7.33;4.12;;;;;;;20.02;63.97;100285.73;1661038;85;21129;-59
2021/06/29 02:43:31;;;;;;;8.50;4.75;;;;;;;19.97;64.09;100285.48;1626605;85;21087;-59
2021/06/29 02:45:58;;;;;;;6.37;3.85;;;;;;;20.00;64.15;100283.77;1653211;85;21063;-59
2021/06/29 02:48:24;;;;;;;5.72;3.47;;;;;;;20.13;64.00;100283.11;1652605;85;21004;-59
2021/06/29 02:50:50;;;;;;;6.05;3.98;;;;;;;20.19;63.82;100279.67;1649476;85;21136;-59
2021/06/29 02:53:17;;;;;;;8.48;5.33;;;;;;;20.19;63.81;100276.52;1652585;85;21148;-59
2021/06/29 02:55:44;;;;;;;8.93;5.15;;;;;;;20.23;63.83;100280.96;1654367;85;21143;-58
2021/06/29 02:58:10;;;;;;;7.70;5.03;;;;;;;20.27;63.81;100281.41;1625972;85;21047;-59
2021/06/29 03:00:37;;;;;;;7.53;5.28;;;;;;;20.29;63.86;100283.38;1651878;85;21087;-58
2021/06/29 03:03:04;;;;;;;8.55;5.40;;;;;;;20.28;63.67;100286.56;1653006;85;21109;-58
2021/06/29 03:05:31;;;;;;;7.80;4.83;;;;;;;20.30;63.58;100286.38;1651775;85;22475;-59
2021/06/29 03:07:57;;;;;;;7.47;5.25;;;;;;;20.37;63.38;100286.75;1651127;85;21094;-60
2021/06/29 03:10:23;;;;;;;8.50;5.50;;;;;;;20.41;63.37;100292.58;1649239;85;21031;-60
2021/06/29 03:12:50;;;;;;;7.97;5.00;;;;;;;20.41;63.58;100296.58;1622639;85;21222;-61
2021/06/29 03:15:16;;;;;;;8.25;5.10;;;;;;;20.40;63.60;100294.91;1657425;85;21645;-61
2021/06/29 03:17:43;;;;;;;7.12;4.62;;;;;;;20.38;63.62;100292.95;1667176;84;21163;-60
2021/06/29 03:20:12;;;;;;;6.65;4.40;;;;;;;20.38;63.60;100299.62;1690353;83;21138;-64
2021/06/29 03:22:39;;;;;;;7.12;4.92;;;;;;;20.38;63.51;100306.31;1668028;83;21090;-64
2021/06/29 03:25:07;;;;;;;9.48;4.65;;;;;;;20.39;63.46;100308.80;1692543;83;21047;-64
2021/06/29 03:27:34;;;;;;;6.15;3.75;;;;;;;20.52;63.44;100312.61;1692732;83;21128;-63
2021/06/29 03:30:01;;;;;;;7.05;4.75;;;;;;;20.62;63.23;100314.98;1667178;83;21352;-64
2021/06/29 03:32:27;;;;;;;6.92;4.70;;;;;;;20.70;63.18;100320.23;1693294;83;21013;-64
2021/06/29 03:34:53;;;;;;;7.67;4.83;;;;;;;20.73;63.29;100320.68;1690940;82;21097;-65
2021/06/29 03:37:20;;;;;;;6.40;4.42;;;;;;;20.74;63.30;100320.98;1672378;82;21109;-65
2021/06/29 03:39:46;;;;;;;6.67;4.55;;;;;;;20.72;63.23;100320.87;1691201;82;21163;-63
2021/06/29 03:42:13;;;;;;;7.25;5.50;;;;;;;20.68;63.03;100320.91;1666596;83;21160;-65
2021/06/29 03:44:39;;;;;;;7.30;4.83;;;;;;;20.59;62.98;100330.39;1690241;83;21027;-65
2021/06/29 03:47:05;;;;;;;6.10;4.55;;;;;;;20.57;63.14;100322.23;1692437;83;21067;-62
2021/06/29 03:49:32;;;;;;;8.03;5.10;;;;;;;20.58;63.21;100323.89;1667503;83;21063;-64
2021/06/29 03:51:58;;;;;;;9.00;5.20;;;;;;;20.56;63.22;100324.56;1666821;83;21025;-62
2021/06/29 03:54:25;;;;;;;6.78;4.72;;;;;;;20.54;63.44;100324.78;1691250;83;21732;-64
2021/06/29 03:56:52;;;;;;;7.10;4.58;;;;;;;20.54;63.47;100327.45;1686942;83;21071;-64
2021/06/29 03:59:18;;;;;;;7.58;5.30;;;;;;;20.53;63.42;100323.12;1695268;83;21043;-67
2021/06/29 04:01:46;;;;;;;7.37;4.75;;;;;;;20.54;63.47;100330.62;1691083;83;21104;-64
2021/06/29 04:04:13;;;;;;;9.25;5.30;;;;;;;20.54;63.46;100325.27;1672966;83;21300;-64
2021/06/29 04:06:40;;;;;;;7.87;5.42;;;;;;;20.58;63.45;100319.37;1692169;83;21148;-64
2021/06/29 04:09:09;;;;;;;8.40;5.28;;;;;;;20.63;63.33;100322.00;1688585;83;21136;-64
2021/06/29 04:11:35;;;;;;;8.48;5.05;;;;;;;20.62;63.50;100326.48;1689644;82;21052;-64
2021/06/29 04:14:02;;;;;;;7.42;5.45;;;;;;;20.63;63.68;100332.69;1690357;82;21416;-66
2021/06/29 04:16:28;;;;;;;7.95;5.08;;;;;;;20.60;63.62;100329.35;1696736;82;21112;-65
2021/06/29 04:18:55;;;;;;;7.92;5.20;;;;;;;20.58;63.84;100326.56;1696882;82;22595;-63
2021/06/29 04:21:21;;;;;;;8.18;5.37;;;;;;;20.64;63.72;100331.16;1697980;82;21137;-65
2021/06/29 04:23:47;;;;;;;7.65;5.17;;;;;;;20.75;63.56;100327.99;1671912;82;21551;-65
2021/06/29 04:27:53;;;;;;;8.20;4.83;;;;;;;20.87;63.33;100324.30;1809316;77;22666;-64
2021/06/29 04:30:21;;;;;;;9.45;5.05;;;;;;;20.88;63.37;100323.29;1777801;78;21100;-64
2021/06/29 04:32:47;;;;;;;9.83;6.37;;;;;;;20.95;63.32;100324.17;1783189;78;21082;-64
2021/06/29 04:35:13;;;;;;;8.08;5.37;;;;;;;21.01;63.28;100321.74;1778893;79;21037;-64
2021/06/29 04:37:40;;;;;;;9.25;5.40;;;;;;;21.03;62.99;100323.22;1773801;78;21061;-64
2021/06/29 04:40:07;;;;;;;6.92;4.67;;;;;;;21.08;63.05;100324.80;1784009;78;21085;-65
2021/06/29 04:42:34;;;;;;;7.58;5.28;;;;;;;21.19;62.95;100331.46;1783772;78;20962;-65
2021/06/29 04:45:01;;;;;;;9.05;5.40;;;;;;;21.22;62.73;100328.41;1779986;78;21110;-62
2021/06/29 04:47:27;;;;;;;8.80;5.25;;;;;;;21.21;62.73;100329.41;1779620;78;21096;-64
2021/06/29 04:49:55;;;;;;;7.58;5.55;;;;;;;21.21;62.47;100324.06;1772459;79;21021;-62
2021/06/29 04:52:22;;;;;;;8.48;5.62;;;;;;;21.22;62.62;100326.25;1764008;80;21081;-67
2021/06/29 04:54:48;;;;;;;7.62;5.20;;;;;;;21.21;62.63;100328.08;1777697;79;21576;-64
2021/06/29 04:57:15;;;;;;;9.60;5.47;;;;;;;21.23;62.80;100329.22;1781981;78;21101;-60
2021/06/29 04:59:41;;;;;;;6.87;4.72;;;;;;;21.26;62.89;100334.19;1777061;78;21533;-63
2021/06/29 05:02:07;;;;;;;8.85;5.45;;;;;;;21.33;62.48;100330.55;1754617;80;21006;-65
2021/06/29 05:04:34;;;;;;;8.48;5.25;;;;;;;21.38;62.44;100332.63;1772002;79;21104;-64
2021/06/29 05:07:00;;;;;;;8.50;5.50;;;;;;;21.42;62.05;100323.72;1752858;80;21128;-65
2021/06/29 05:09:27;;;;;;;6.62;5.22;;;;;;;21.44;62.06;100310.44;1781659;80;21822;-65
2021/06/29 05:11:53;;;;;;;7.12;5.55;;;;;;;21.49;62.16;100312.05;1776414;78;21101;-64
2021/06/29 05:14:20;;;;;;;7.60;4.87;;;;;;;21.57;62.01;100313.75;1780683;78;21472;-64
2021/06/29 05:16:47;;;;;;;8.78;4.85;;;;;;;21.60;61.41;100308.01;1778146;78;20958;-64
2021/06/29 05:19:14;;;;;;;6.95;5.20;;;;;;;21.64;61.62;100313.80;1756390;79;21012;-64
2021/06/29 05:21:40;;;;;;;16.37;5.75;;;;;;;21.71;61.54;100310.63;1784676;78;21729;-64
2021/06/29 05:24:07;;;;;;;7.28;4.85;;;;;;;21.83;61.54;100312.23;1755834;79;20938;-61
2021/06/29 05:26:34;;;;;;;9.05;5.40;;;;;;;21.99;61.47;100319.94;1778465;78;21055;-64
2021/06/29 05:29:02;;;;;;;7.45;5.03;;;;;;;22.14;61.14;100320.30;1742580;78;21070;-60
2021/06/29 05:31:29;;;;;;;9.45;5.33;;;;;;;22.24;60.47;100322.08;1773579;79;21073;-63
2021/06/29 05:33:58;;;;;;;7.70;5.45;;;;;;;22.30;60.46;100312.46;1773155;79;21055;-63
2021/06/29 05:36:24;;;;;;;8.98;5.10;;;;;;;22.39;60.49;100314.77;1770469;79;21319;-65
2021/06/29 05:38:51;;;;;;;8.60;5.33;;;;;;;22.46;60.25;100306.73;1771747;79;21098;-65
2021/06/29 05:41:17;;;;;;;7.37;5.12;;;;;;;22.51;59.77;100308.30;1735724;80;21089;-63
2021/06/29 05:43:44;;;;;;;8.48;5.85;;;;;;;22.54;59.81;100309.20;1749786;79;20999;-62
2021/06/29 05:46:10;;;;;;;7.65;4.92;;;;;;;22.57;59.57;100308.80;1770558;79;21075;-63
2021/06/29 05:48:36;;;;;;;9.30;5.28;;;;;;;22.61;59.78;100306.04;1780825;79;21105;-63
2021/06/29 05:51:04;;;;;;;7.20;5.80;;;;;;;22.74;59.66;100308.42;1776411;80;21399;-65
2021/06/29 05:53:30;;;;;;;6.80;4.87;;;;;;;22.88;59.38;100309.25;1776307;79;21056;-65
2021/06/29 05:55:57;;;;;;;6.85;4.65;;;;;;;23.00;58.88;100311.12;1773561;79;21081;-65
2021/06/29 05:58:24;;;;;;;8.25;4.33;;;;;;;23.10;58.57;100310.73;1769828;79;21093;-64
2021/06/29 06:00:50;;;;;;;6.55;5.05;;;;;;;23.14;58.60;100310.63;1749272;79;21102;-62
2021/06/29 06:03:18;;;;;;;8.10;4.75;;;;;;;23.18;57.93;100311.03;1747512;80;21478;-63
2021/06/29 06:05:44;;;;;;;6.75;4.58;;;;;;;23.20;58.05;100306.30;1766696;79;21050;-62
2021/06/29 06:08:11;;;;;;;8.58;4.75;;;;;;;23.23;57.44;100314.44;1746741;79;21117;-61
2021/06/29 06:10:37;;;;;;;7.37;5.22;;;;;;;23.21;57.44;100301.22;1743833;80;21552;-64
2021/06/29 06:13:04;;;;;;;7.65;4.75;;;;;;;23.24;57.15;100301.34;1747751;80;21187;-64
2021/06/29 06:15:30;;;;;;;8.75;4.45;;;;;;;23.26;57.34;100303.30;1773868;79;21050;-68
2021/06/29 06:17:57;;;;;;;7.03;4.62;;;;;;;23.31;57.77;100306.17;1745788;79;21145;-66
2021/06/29 06:20:24;;;;;;;7.12;4.05;;;;;;;23.35;57.39;100304.70;1743351;80;21071;-66
2021/06/29 06:22:50;;;;;;;7.55;4.30;;;;;;;23.37;57.61;100305.34;1771220;79;21116;-68
2021/06/29 06:25:16;;;;;;;7.42;4.72;;;;;;;23.42;56.96;100303.36;1771404;79;21456;-65
2021/06/29 06:27:43;;;;;;;10.38;4.97;;;;;;;23.51;57.21;100303.45;1766148;79;21024;-64
2021/06/29 06:30:11;;;;;;;7.10;4.72;;;;;;;23.58;57.72;100304.26;1766401;79;21079;-65
2021/06/29 06:32:37;;;;;;;7.37;4.65;;;;;;;23.57;57.25;100306.66;1736168;80;21141;-72
2021/06/29 06:35:06;;;;;;;10.50;5.00;;;;;;;23.52;57.16;100306.46;1763930;79;21082;-66
2021/06/29 06:37:33;;;;;;;7.00;4.47;;;;;;;23.46;56.98;100308.11;1766756;79;21062;-64
2021/06/29 06:39:59;;;;;;;7.60;4.55;;;;;;;23.42;56.52;100302.86;1766312;79;21090;-71
2021/06/29 06:42:26;;;;;;;7.00;4.53;;;;;;;23.43;56.54;100303.15;1764184;79;21112;-65
2021/06/29 06:44:53;;;;;;;10.80;4.40;;;;;;;23.48;56.67;100303.34;1728134;82;21021;-65
2021/06/29 06:47:19;;;;;;;8.23;5.03;;;;;;;23.55;56.50;100310.89;1699917;82;21738;-63
2021/06/29 06:49:46;;;;;;;7.20;4.47;;;;;;;23.64;55.48;100303.42;1760826;79;21086;-65
2021/06/29 06:52:14;;;;;;;9.20;4.20;;;;;;;23.74;55.22;100307.84;1756603;79;21754;-64
2021/06/29 06:54:42;;;;;;;6.90;4.00;;;;;;;23.85;54.49;100302.88;1764400;79;21069;-63
2021/06/29 06:57:10;;;;;;;5.90;3.92;;;;;;;23.95;54.72;100299.73;1762455;79;22491;-65
2021/06/29 06:59:37;;;;;;;5.62;3.87;;;;;;;24.02;53.99;100302.69;1769218;79;21091;-65
2021/06/29 07:02:05;;;;;;;7.28;4.70;;;;;;;24.11;54.36;100301.42;1766098;79;21076;-64
2021/06/29 07:04:31;;;;;;;7.90;4.95;;;;;;;24.19;54.72;100299.52;1765196;79;21069;-62
2021/06/29 07:06:58;;;;;;;6.55;4.20;;;;;;;24.29;55.44;100300.72;1767071;79;21106;-63
2021/06/29 07:09:24;;;;;;;6.80;4.50;;;;;;;24.36;54.78;100301.17;1768662;80;21092;-64
2021/06/29 07:11:50;;;;;;;7.12;4.70;;;;;;;24.40;54.57;100296.50;1736756;79;21098;-63
2021/06/29 07:14:18;;;;;;;7.25;4.20;;;;;;;24.46;54.37;100296.15;1736081;80;21043;-62
2021/06/29 07:16:44;;;;;;;7.75;4.45;;;;;;;24.52;54.02;100290.44;1736012;80;21118;-62
2021/06/29 07:19:12;;;;;;;7.62;4.37;;;;;;;24.58;54.84;100291.77;1758784;79;21656;-61
2021/06/29 07:21:39;;;;;;;7.00;4.37;;;;;;;24.70;55.43;100299.16;1766204;80;21078;-62
2021/06/29 07:24:07;;;;;;;5.83;4.03;;;;;;;24.86;55.49;100294.55;1762470;79;21047;-63
2021/06/29 07:26:33;;;;;;;9.60;5.15;;;;;;;25.11;54.60;100309.89;1760918;79;21050;-63
2021/06/29 07:29:03;;;;;;;11.80;4.80;;;;;;;25.32;53.73;100305.48;1764647;79;21905;-64
2021/06/29 07:31:32;;;;;;;6.20;4.25;;;;;;;25.44;52.83;100305.57;1757571;79;21121;-63
2021/06/29 07:33:59;;;;;;;6.87;4.22;;;;;;;25.48;52.55;100305.41;1769673;79;21114;-62
2021/06/29 07:36:26;;;;;;;5.87;4.15;;;;;;;25.52;52.01;100309.32;1773812;79;21126;-64
2021/06/29 07:38:55;;;;;;;6.17;4.37;;;;;;;25.53;51.61;100304.75;1746969;79;21567;-63
2021/06/29 07:41:22;;;;;;;5.90;3.37;;;;;;;25.54;51.51;100300.48;1769647;79;21554;-68
2021/06/29 07:43:48;;;;;;;6.28;3.05;;;;;;;25.54;49.12;100306.41;1767766;80;21054;-64
2021/06/29 07:46:15;;;;;;;6.53;2.98;;;;;;;25.48;48.80;100301.37;1739264;80;21702;-67
2021/06/29 07:48:42;;;;;;;7.15;3.42;;;;;;;25.46;48.74;100298.62;1734625;79;21067;-64
2021/06/29 07:51:09;;;;;;;9.58;3.10;;;;;;;25.47;46.86;100294.86;1764697;79;21522;-64
2021/06/29 07:53:37;;;;;;;5.10;2.72;;;;;;;25.53;46.18;100289.94;1739937;80;21093;-68
2021/06/29 07:56:04;;;;;;;5.83;3.10;;;;;;;25.65;47.32;100293.52;1728805;81;21023;-71
2021/06/29 07:58:31;;;;;;;5.62;2.90;;;;;;;25.81;46.97;100298.03;1764589;79;21097;-69
2021/06/29 08:00:57;;;;;;;5.22;2.80;;;;;;;26.00;45.06;100296.97;1763405;79;21090;-69
2021/06/29 08:03:25;;;;;;;5.42;3.62;;;;;;;26.13;44.65;100296.80;1769034;79;21054;-66
2021/06/29 08:05:52;;;;;;;6.83;3.47;;;;;;;26.23;45.22;100292.22;1763112;79;21010;-67
2021/06/29 08:08:19;;;;;;;5.92;2.85;;;;;;;26.27;44.67;100289.88;1738409;80;21151;-68
2021/06/29 08:10:46;;;;;;;4.50;2.80;;;;;;;26.28;43.30;100296.39;1737575;80;21050;-66
2021/06/29 08:13:12;;;;;;;25.68;5.60;;;;;;;26.30;43.41;100292.13;1771204;79;21203;-71
2021/06/29 08:15:39;;;;;;;5.95;2.92;;;;;;;26.38;43.78;100290.45;1716452;79;21098;-62
2021/06/29 08:18:06;;;;;;;5.53;2.60;;;;;;;26.48;43.60;100292.06;1764043;79;21073;-64
2021/06/29 08:20:32;;;;;;;6.87;3.00;;;;;;;26.59;44.05;100284.23;1735848;79;21597;-62
2021/06/29 08:22:59;;;;;;;10.30;3.62;;;;;;;26.66;42.96;100284.47;1766137;79;21028;-64
2021/06/29 08:25:25;;;;;;;4.78;2.60;;;;;;;26.70;42.42;100267.28;1765158;79;21145;-67
2021/06/29 08:27:52;;;;;;;4.72;2.87;;;;;;;26.75;42.38;100271.45;1765507;79;21030;-68
2021/06/29 08:30:20;;;;;;;4.70;3.02;;;;;;;26.83;42.83;100271.11;1757168;79;21099;-66
2021/06/29 08:32:47;;;;;;;4.30;2.08;;;;;;;26.93;42.34;100278.61;1746735;80;21088;-66
2021/06/29 08:35:13;;;;;;;4.00;2.00;;;;;;;26.98;38.32;100268.46;1751843;80;21095;-70
2021/06/29 08:37:40;;;;;;;4.03;2.15;;;;;;;26.98;38.99;100257.66;1750198;80;21868;-65
2021/06/29 08:40:10;;;;;;;7.00;3.02;;;;;;;27.03;38.80;100265.88;1754533;80;21577;-69
2021/06/29 08:42:37;;;;;;;4.83;2.85;;;;;;;27.12;40.67;100269.05;1749867;80;21087;-63
2021/06/29 08:45:08;;;;;;;4.65;2.27;;;;;;;27.15;40.99;100278.88;1758016;80;21035;-67
2021/06/29 08:47:35;;;;;;;5.85;2.67;;;;;;;27.14;40.19;100281.80;1760906;80;21023;-64
2021/06/29 08:50:03;;;;;;;5.67;2.52;;;;;;;27.12;40.76;100286.59;1746252;80;21139;-67
2021/06/29 08:52:30;;;;;;;4.40;2.60;;;;;;;27.17;40.25;100285.39;1747877;80;21114;-69
2021/06/29 08:54:56;;;;;;;4.00;2.27;;;;;;;27.28;39.45;100286.44;1749718;80;21370;-64
2021/06/29 08:57:23;;;;;;;5.10;2.50;;;;;;;27.40;37.80;100275.95;1745027;80;21070;-59
2021/06/29 08:59:51;;;;;;;4.62;2.52;;;;;;;27.52;37.95;100263.77;1745546;80;21150;-70
2021/06/29 09:02:19;;;;;;;5.42;2.85;;;;;;;27.64;38.34;100264.25;1679909;83;21084;-59
2021/06/29 09:05:00;;;;;;;6.17;2.85;;;;;;;27.70;38.41;100265.47;1677245;83;21591;-58
2021/06/29 09:07:31;;;;;;;4.80;2.35;;;;;;;27.77;38.13;100256.72;1692012;83;21444;-65
2021/06/29 09:09:59;;;;;;;4.42;2.25;;;;;;;27.82;37.86;100254.63;1665770;83;21095;-61
2021/06/29 09:12:47;;;;;;;4.10;2.35;;;;;;;27.88;37.95;100242.05;1683519;83;21090;-63
2021/06/29 09:15:39;;;;;;;5.55;2.67;;;;;;;27.95;37.94;100242.20;1662769;82;22087;-62
2021/06/29 09:18:11;;;;;;;5.42;2.47;;;;;;;28.06;38.08;100240.53;1701241;82;21724;-63
2021/06/29 09:21:03;;;;;;;4.72;2.30;;;;;;;28.12;38.73;100246.84;1672324;83;21454;-62
2021/06/29 09:23:39;;;;;;;4.53;2.30;;;;;;;28.05;39.77;100245.64;1696423;83;21077;-61
2021/06/29 09:26:10;;;;;;;5.03;2.20;;;;;;;27.95;39.06;100235.44;1690196;82;21066;-62
2021/06/29 09:28:40;;;;;;;4.60;2.45;;;;;;;27.88;39.84;100226.63;1693901;82;21102;-61
2021/06/29 09:31:09;;;;;;;4.60;1.90;;;;;;;27.78;38.88;100227.80;1730066;80;21071;-62
2021/06/29 09:33:42;;;;;;;4.55;2.22;;;;;;;27.66;39.17;100225.67;1699024;82;21575;-60
2021/06/29 09:36:16;;;;;;;5.53;2.22;;;;;;;27.55;39.19;100214.63;1738896;80;21106;-62
2021/06/29 09:38:45;;;;;;;4.00;1.82;;;;;;;27.47;38.79;100211.48;1727387;82;21071;-62
2021/06/29 09:41:20;;;;;;;4.15;1.90;;;;;;;27.33;39.70;100211.75;1738495;82;21122;-64
2021/06/29 09:43:49;;;;;;;;;;;;;;;27.32;40.74;100202.53;1701954;82;21118;-67
2021/06/29 09:46:18;;;;;;;3.72;1.82;;;;;;;27.43;40.88;100212.50;1699521;82;20219;-60
2021/06/29 09:48:48;;;;;;;4.15;1.95;;;;;;;27.47;39.14;100200.67;1733588;80;21071;-66
2021/06/29 09:51:26;;;;;;;5.17;2.80;;;;;;;27.55;39.14;100208.41;1696669;81;21144;-64
2021/06/29 09:53:55;;;;;;;5.03;2.55;;;;;;;27.66;38.90;100207.56;1715331;82;21073;-62
2021/06/29 09:56:25;;;;;;;7.47;2.40;;;;;;;27.73;39.11;100210.13;1698025;82;21150;-68
2021/06/29 09:58:58;;;;;;;5.87;2.42;;;;;;;27.73;38.89;100203.37;1718629;81;21121;-58
2021/06/29 10:01:28;;;;;;;4.40;2.05;;;;;;;27.73;39.12;100191.20;1716006;82;21085;-61
2021/06/29 10:04:00;;;;;;;3.75;1.65;;;;;;;27.76;38.09;100202.35;1696743;82;21113;-66
2021/06/29 10:06:32;;;;;;;4.50;2.02;;;;;;;27.80;33.98;100189.17;1739051;80;23194;-58
2021/06/29 10:09:11;;;;;;;4.45;2.02;;;;;;;27.77;34.76;100190.99;1696819;82;21081;-61
2021/06/29 10:11:47;;;;;;;3.90;1.52;;;;;;;27.77;35.44;100194.55;1711054;81;21085;-67
2021/06/29 10:14:15;;;;;;;3.02;1.52;;;;;;;27.87;35.34;100192.53;1715195;82;21073;-63
2021/06/29 10:16:47;;;;;;;3.77;1.85;;;;;;;27.96;34.94;100202.48;1722230;82;21687;-62
2021/06/29 10:19:36;;;;;;;4.28;2.20;;;;;;;28.03;34.14;100193.68;1715435;82;21139;-68
2021/06/29 10:22:03;;;;;;;5.35;2.40;;;;;;;28.11;34.89;100190.58;1713466;82;21077;-62
2021/06/29 10:24:34;;;;;;;6.03;2.45;;;;;;;28.22;36.03;100196.17;1717872;81;21133;-60
2021/06/29 10:27:04;;;;;;;4.53;2.30;;;;;;;28.27;37.10;100214.65;1721460;81;22288;-58
2021/06/29 10:29:31;;;;;;;5.25;2.35;;;;;;;28.26;36.91;100203.55;1709113;82;21108;-64
2021/06/29 10:32:03;;;;;;;4.20;2.47;;;;;;;28.25;36.75;100191.08;1675344;83;22008;-58
2021/06/29 10:34:29;;;;;;;4.70;2.17;;;;;;;28.27;35.04;100210.59;1764184;79;21054;-59
2021/06/29 10:36:56;;;;;;;5.87;2.00;;;;;;;28.20;35.76;100193.70;1739824;82;21635;-60
2021/06/29 10:39:27;;;;;;;5.17;2.58;;;;;;;28.16;35.58;100204.19;1760004;79;21008;-64
2021/06/29 10:42:03;;;;;;;4.78;2.17;;;;;;;28.14;36.09;100187.91;1770013;79;21004;-62
2021/06/29 10:44:38;;;;;;;;;;;;;;;28.17;36.13;100190.94;1741577;80;21074;-59
2021/06/29 10:47:26;;;;;;;4.05;2.27;;;;;;;28.26;36.58;100194.59;1765897;79;20216;-71
2021/06/29 10:49:54;;;;;;;6.70;2.72;;;;;;;28.20;36.34;100208.58;1743922;79;21054;-59
2021/06/29 10:52:34;;;;;;;4.80;2.10;;;;;;;28.11;36.44;100200.56;1771634;79;21097;-62
2021/06/29 10:55:23;;;;;;;4.30;1.87;;;;;;;28.06;36.34;100203.17;1756853;79;21038;-60
2021/06/29 10:57:56;;;;;;;6.70;1.92;;;;;;;28.02;35.73;100206.09;1759324;79;21136;-61
2021/06/29 11:00:34;;;;;;;3.55;1.95;;;;;;;28.02;35.59;100204.73;1758101;79;21043;-60
2021/06/29 11:03:09;;;;;;;3.52;1.72;;;;;;;27.99;35.98;100208.73;1749551;79;21276;-61
2021/06/29 11:05:41;;;;;;;4.15;2.00;;;;;;;27.98;35.73;100209.81;1772004;79;21090;-63
2021/06/29 11:08:13;;;;;;;4.00;1.85;;;;;;;28.04;35.84;100212.07;1765691;79;21059;-63
2021/06/29 11:10:45;;;;;;;8.55;2.20;;;;;;;28.13;36.03;100218.74;1762468;79;21031;-66
2021/06/29 11:13:11;;;;;;;5.08;2.12;;;;;;;28.26;35.68;100219.79;1740789;79;21412;-66
2021/06/29 11:15:53;;;;;;;4.67;2.42;;;;;;;28.35;34.94;100208.02;1761227;79;21059;-60
2021/06/29 11:18:40;;;;;;;4.30;2.00;;;;;;;28.44;35.49;100212.49;1756596;79;21054;-58
2021/06/29 11:21:20;;;;;;;4.08;2.00;;;;;;;28.63;36.14;100206.32;1745648;79;21106;-64
2021/06/29 11:23:47;;;;;;;4.30;2.17;;;;;;;28.81;35.14;100201.19;1750715;79;21085;-68
2021/06/29 11:26:17;;;;;;;4.85;2.67;;;;;;;28.94;35.48;100204.90;1770456;79;21094;-66
2021/06/29 11:28:48;;;;;;;4.55;2.40;;;;;;;29.07;35.62;100203.19;1735611;80;21549;-68
2021/06/29 11:31:30;;;;;;;4.65;2.30;;;;;;;29.19;35.23;100207.17;1734832;81;21019;-63
2021/06/29 11:34:04;;;;;;;6.20;2.37;;;;;;;29.21;36.00;100198.25;1761010;79;20995;-64